SHMÚ vydal meteorologické výstrahy na Low temperatures Display warnings

METAR

Aeronautical MET Report METAR

METAR description (Slovak)

08.04.2020 - 11:30 UTC

METAR LZIB 081130Z 15011KT CAVOK 19/M07 Q1029 NOSIG=
METAR LZKZ 081130Z VRB04KT CAVOK 21/M05 Q1028 NOSIG=
METAR LZPP 081130Z 21007KT 160V260 CAVOK 18/M06 Q1029=
METAR LZSL 081130Z /////KT CAVOK 20/M06 Q1028=
METAR LZTT 081130Z 01003KT 300V060 CAVOK 17/M09 Q1029 NOSIG=
METAR LZZI 081130Z VRB02KT CAVOK 19/M06 Q1028=

08.04.2020 - 11:00 UTC

METAR LZIB 081100Z 16010KT 110V210 CAVOK 19/M06 Q1029 NOSIG=
METAR LZKZ 081100Z VRB03KT CAVOK 20/M06 Q1029 NOSIG=
METAR LZPP 081100Z 22009KT CAVOK 18/M06 Q1029=
METAR LZSL 081100Z /////KT CAVOK 20/M06 Q1029=
METAR LZTT 081100Z VRB03KT CAVOK 17/M08 Q1029 NOSIG=
METAR LZZI 081100Z 26006KT 220V310 CAVOK 19/M06 Q1029=

08.04.2020 - 11:00 UTC

METAR LZMC 081100Z 18010G20KT CAVOK 19/M10 Q1029=
METAR LZPW 081100Z 30002KT CAVOK 20/M10 Q1029=

 

 

skok na menu ↑


skok na začiatok stránky ↑